Time;durP1;ratioP1;P1;durP2;ratioP2;P2;SDS_P1;SDS_P2;PMS_P1;PMS_P2;Temp;Humidity;BMP_temperature;BMP_pressure;BME280_temperature;BME280_humidity;BME280_pressure;Samples;Min_cycle;Max_cycle;Signal;HPM_P1;HPM_P2
2022/01/28 00:00:18;;;;;;;7.87;2.97;;;16.40;77.40;;;;;;5135098;27;20174;-21
2022/01/28 00:02:57;;;;;;;8.07;3.27;;;16.40;77.30;;;;;;5132585;27;20178;-22
2022/01/28 00:05:23;;;;;;;8.80;3.00;;;16.40;77.20;;;;;;5132199;27;20408;-23
2022/01/28 00:07:53;;;;;;;7.53;2.80;;;16.40;77.00;;;;;;5132429;27;20314;-20
2022/01/28 00:10:22;;;;;;;5.67;2.70;;;16.40;77.10;;;;;;5134526;27;20159;-23
2022/01/28 00:13:12;;;;;;;7.03;3.00;;;16.40;77.00;;;;;;5134816;27;20258;-22
2022/01/28 00:40:18;;;;;;;6.37;2.83;;;16.40;77.10;;;;;;5134991;27;20511;-23
2022/01/28 00:42:44;;;;;;;7.90;2.53;;;16.40;77.10;;;;;;5133046;27;20543;-22
2022/01/28 00:45:09;;;;;;;7.07;2.60;;;16.40;77.00;;;;;;5133207;27;20259;-21
2022/01/28 00:47:35;;;;;;;4.53;2.40;;;16.40;76.90;;;;;;5133083;27;20170;-23
2022/01/28 00:50:01;;;;;;;8.23;2.30;;;16.40;76.90;;;;;;5132482;27;20163;-22
2022/01/28 00:52:27;;;;;;;4.73;2.30;;;16.40;76.70;;;;;;5133035;27;20169;-22
2022/01/28 00:54:52;;;;;;;5.73;2.33;;;16.40;76.70;;;;;;5132203;27;20242;-21
2022/01/28 00:57:18;;;;;;;5.23;2.30;;;16.40;76.40;;;;;;5134436;27;20170;-23
2022/01/28 00:59:44;;;;;;;6.00;2.30;;;16.50;76.20;;;;;;5134936;27;20172;-25
2022/01/28 01:02:10;;;;;;;5.27;2.40;;;16.50;76.10;;;;;;5133322;27;20182;-22
2022/01/28 01:04:35;;;;;;;5.50;2.10;;;16.50;75.90;;;;;;5134294;27;20169;-25
2022/01/28 01:07:01;;;;;;;5.27;2.40;;;16.50;75.80;;;;;;5134395;27;20162;-22
2022/01/28 01:09:27;;;;;;;6.23;2.43;;;16.50;75.70;;;;;;5134707;27;20199;-22
2022/01/28 01:11:53;;;;;;;4.93;2.30;;;16.50;75.30;;;;;;5133158;27;20180;-19
2022/01/28 01:14:19;;;;;;;4.47;1.93;;;16.50;75.10;;;;;;5130934;27;20171;-20
2022/01/28 01:19:47;;;;;;;4.80;2.13;;;16.60;74.80;;;;;;5119661;27;20182;-22
2022/01/28 01:22:13;;;;;;;4.10;2.10;;;16.60;74.60;;;;;;5134251;27;20245;-22
2022/01/28 01:24:48;;;;;;;3.60;1.83;;;16.60;74.50;;;;;;5133420;27;20266;-23
2022/01/28 01:27:15;;;;;;;2.50;1.80;;;16.60;74.20;;;;;;5132122;27;20167;-22
2022/01/28 01:29:45;;;;;;;3.83;2.07;;;16.60;74.00;;;;;;5132608;27;20196;-23
2022/01/28 01:32:16;;;;;;;5.77;2.00;;;16.60;73.90;;;;;;5116310;27;20199;-22
2022/01/28 01:34:44;;;;;;;4.10;1.80;;;16.70;73.80;;;;;;5131785;27;20180;-22
2022/01/28 01:37:10;;;;;;;4.00;2.00;;;16.70;73.60;;;;;;5131295;27;20168;-22
2022/01/28 01:39:38;;;;;;;3.93;1.77;;;16.70;73.60;;;;;;5131436;27;20175;-19
2022/01/28 01:42:18;;;;;;;6.13;1.93;;;16.70;73.60;;;;;;5133355;27;20261;-22
2022/01/28 01:45:16;;;;;;;4.60;1.97;;;16.70;73.50;;;;;;5133858;27;20197;-20
2022/01/28 01:53:00;;;;;;;3.33;1.93;;;16.70;73.10;;;;;;5131550;27;20222;-22
2022/01/28 01:55:26;;;;;;;6.20;2.03;;;16.70;73.10;;;;;;5132658;27;20180;-22
2022/01/28 01:57:52;;;;;;;3.73;1.97;;;16.70;73.10;;;;;;5130692;27;20268;-22
2022/01/28 02:00:18;;;;;;;5.53;1.90;;;16.70;73.20;;;;;;5133157;27;20335;-20
2022/01/28 02:02:44;;;;;;;2.93;1.70;;;16.70;73.20;;;;;;5131816;27;20565;-22
2022/01/28 02:05:10;;;;;;;3.63;1.87;;;16.70;73.00;;;;;;5133425;27;20193;-23
2022/01/28 02:07:38;;;;;;;4.47;1.80;;;16.70;73.00;;;;;;5135610;27;20169;-22
2022/01/28 02:10:04;;;;;;;3.43;1.53;;;16.70;73.10;;;;;;5137389;27;20276;-21
2022/01/28 02:12:47;;;;;;;4.00;1.87;;;16.70;73.00;;;;;;5138747;27;20170;-21
2022/01/28 02:15:13;;;;;;;3.80;1.77;;;16.60;73.10;;;;;;5137081;27;20159;-20
2022/01/28 02:17:38;;;;;;;2.53;1.80;;;16.60;73.20;;;;;;5136272;27;20437;-21
2022/01/28 02:20:08;;;;;;;3.07;1.70;;;16.60;73.20;;;;;;5136606;27;20585;-23
2022/01/28 02:22:35;;;;;;;3.37;1.80;;;16.60;73.30;;;;;;5136268;27;20236;-22
2022/01/28 02:25:01;;;;;;;2.97;1.47;;;16.60;73.30;;;;;;5137966;27;20199;-25
2022/01/28 02:27:27;;;;;;;4.00;1.60;;;16.60;73.30;;;;;;5136414;27;20163;-22
2022/01/28 02:29:55;;;;;;;2.63;1.73;;;16.60;73.30;;;;;;5138474;27;20161;-22
2022/01/28 02:32:20;;;;;;;2.73;1.63;;;16.60;73.40;;;;;;5139161;27;20173;-24
2022/01/28 02:34:46;;;;;;;3.97;1.80;;;16.60;73.30;;;;;;5139234;27;20166;-21
2022/01/28 02:37:12;;;;;;;2.43;1.50;;;16.50;73.30;;;;;;5135267;27;20177;-20
2022/01/28 02:39:38;;;;;;;3.33;1.40;;;16.50;73.30;;;;;;5134802;27;20459;-22
2022/01/28 02:42:24;;;;;;;2.93;1.53;;;16.50;73.30;;;;;;5135687;27;20166;-22
2022/01/28 02:44:54;;;;;;;3.07;1.40;;;16.50;73.30;;;;;;5136609;27;20571;-23
2022/01/28 02:47:31;;;;;;;3.17;1.63;;;16.50;73.30;;;;;;5138493;27;20256;-24
2022/01/28 02:49:57;;;;;;;2.73;1.40;;;16.50;73.30;;;;;;5137635;27;20170;-20
2022/01/28 02:52:34;;;;;;;2.33;1.60;;;16.50;73.30;;;;;;5136971;27;20181;-23
2022/01/28 02:55:00;;;;;;;4.57;1.70;;;16.50;73.30;;;;;;5136304;27;20177;-23
2022/01/28 03:07:32;;;;;;;1.80;1.30;;;16.50;73.30;;;;;;5135042;27;20198;-23
2022/01/28 03:12:58;;;;;;;3.17;1.60;;;16.40;73.20;;;;;;5136423;27;20169;-24
2022/01/28 03:15:21;;;;;;;2.87;1.53;;;16.40;73.30;;;;;;5136276;27;20458;-19
2022/01/28 03:18:07;;;;;;;2.80;1.50;;;16.40;73.40;;;;;;5136365;27;20643;-22
2022/01/28 03:20:43;;;;;;;4.73;1.63;;;16.40;73.30;;;;;;5137144;27;20181;-20
2022/01/28 03:23:09;;;;;;;2.57;1.40;;;16.40;73.40;;;;;;5135615;27;20167;-20
2022/01/28 03:25:37;;;;;;;4.47;1.50;;;16.40;73.40;;;;;;5134698;27;20574;-19
2022/01/28 03:28:04;;;;;;;4.23;1.47;;;16.40;73.30;;;;;;5135007;27;20169;-24
2022/01/28 03:30:29;;;;;;;2.90;1.40;;;16.40;73.20;;;;;;5135492;27;20170;-21
2022/01/28 03:32:55;;;;;;;2.57;1.67;;;16.40;73.10;;;;;;5136469;27;20469;-23
2022/01/28 03:35:21;;;;;;;2.57;1.50;;;16.40;73.20;;;;;;5136617;27;20246;-23
2022/01/28 03:37:47;;;;;;;2.57;1.50;;;16.30;73.30;;;;;;5136651;27;20189;-23
2022/01/28 03:40:18;;;;;;;2.57;1.23;;;16.30;73.50;;;;;;5135959;27;20366;-20
2022/01/28 03:42:43;;;;;;;4.80;1.40;;;16.30;73.70;;;;;;5135311;27;20168;-22
2022/01/28 03:45:09;;;;;;;3.47;1.60;;;16.20;73.80;;;;;;5134953;27;20242;-22
2022/01/28 03:47:35;;;;;;;4.13;1.60;;;16.20;74.10;;;;;;5135285;27;20590;-22
2022/01/28 03:50:00;;;;;;;2.67;1.50;;;16.20;74.20;;;;;;5134516;27;20449;-23
2022/01/28 03:52:26;;;;;;;2.30;1.20;;;16.10;74.40;;;;;;5133855;27;20171;-23
2022/01/28 03:54:52;;;;;;;1.63;1.20;;;16.10;74.50;;;;;;5135876;27;20458;-25
2022/01/28 03:57:17;;;;;;;2.77;1.60;;;16.10;74.70;;;;;;5137152;27;20243;-24
2022/01/28 03:59:43;;;;;;;1.70;1.40;;;16.10;75.00;;;;;;5136268;27;20174;-22
2022/01/28 04:02:10;;;;;;;2.83;1.40;;;16.00;75.00;;;;;;5134874;27;20165;-19
2022/01/28 04:12:49;;;;;;;2.50;1.20;;;15.90;75.70;;;;;;5133275;27;20173;-22
2022/01/28 04:15:34;;;;;;;3.50;1.23;;;16.60;71.70;;;;;;5134707;27;20186;-21
2022/01/28 04:18:00;;;;;;;2.53;1.40;;;17.40;65.40;;;;;;5136562;27;20169;-19
2022/01/28 04:20:26;;;;;;;1.93;1.27;;;18.70;58.30;;;;;;5136230;27;20190;-23
2022/01/28 04:22:52;;;;;;;1.80;1.30;;;19.70;55.20;;;;;;5134994;27;20171;-22
2022/01/28 04:25:18;;;;;;;2.33;1.30;;;20.40;53.20;;;;;;5136038;27;20589;-21
2022/01/28 04:27:43;;;;;;;2.17;1.37;;;20.90;52.00;;;;;;5135318;27;20256;-22
2022/01/28 04:30:10;;;;;;;2.00;1.30;;;21.10;51.00;;;;;;5133399;27;20554;-20
2022/01/28 04:32:37;;;;;;;2.27;1.40;;;21.30;50.60;;;;;;5133532;27;20179;-22
2022/01/28 04:35:04;;;;;;;1.97;1.30;;;21.60;50.00;;;;;;5134080;27;20366;-23
2022/01/28 04:37:45;;;;;;;1.93;1.30;;;21.50;49.80;;;;;;5134016;27;20180;-22
2022/01/28 04:40:17;;;;;;;3.20;1.33;;;21.10;50.10;;;;;;5134292;27;20286;-21
2022/01/28 04:42:59;;;;;;;1.60;1.00;;;20.90;50.50;;;;;;5134936;27;20184;-24
2022/01/28 04:45:35;;;;;;;2.47;1.00;;;20.60;50.90;;;;;;5135041;27;20534;-20
2022/01/28 04:48:19;;;;;;;2.27;1.40;;;20.30;51.30;;;;;;5134521;27;20211;-22
2022/01/28 04:51:29;;;;;;;2.63;1.30;;;20.00;51.90;;;;;;5134613;27;20486;-22
2022/01/28 04:58:46;;;;;;;2.30;1.17;;;19.00;54.20;;;;;;5133433;27;20179;-22
2022/01/28 05:27:05;;;;;;;3.50;1.40;;;17.30;62.00;;;;;;5133918;27;20215;-22
2022/01/28 05:29:31;;;;;;;2.13;1.10;;;17.20;62.60;;;;;;5133577;27;20215;-21
2022/01/28 05:31:57;;;;;;;2.00;1.27;;;17.10;63.40;;;;;;5132986;27;20255;-22
2022/01/28 05:34:25;;;;;;;3.07;1.27;;;17.00;63.90;;;;;;5133790;27;20505;-21
2022/01/28 05:36:52;;;;;;;2.00;1.10;;;16.90;64.50;;;;;;5131952;27;20174;-22
2022/01/28 05:39:18;;;;;;;3.07;1.30;;;16.80;65.00;;;;;;5131304;27;20187;-22
2022/01/28 05:41:44;;;;;;;2.90;1.30;;;16.80;65.60;;;;;;5131208;27;20170;-21
2022/01/28 05:44:10;;;;;;;2.50;1.43;;;16.70;66.00;;;;;;5131097;27;20195;-20
2022/01/28 05:46:36;;;;;;;2.20;0.97;;;16.70;66.40;;;;;;5132634;27;20444;-23
2022/01/28 05:49:01;;;;;;;2.13;1.10;;;16.60;66.80;;;;;;5133206;28;20183;-21
2022/01/28 05:51:28;;;;;;;3.07;1.30;;;16.50;67.40;;;;;;5133131;27;20167;-22
2022/01/28 05:53:57;;;;;;;2.93;1.30;;;16.50;67.80;;;;;;5133258;27;20166;-21
2022/01/28 05:56:24;;;;;;;2.27;1.30;;;16.50;68.10;;;;;;5130155;27;20181;-21
2022/01/28 05:58:50;;;;;;;2.73;1.30;;;16.60;67.80;;;;;;5132355;27;20196;-22
2022/01/28 06:01:16;;;;;;;2.33;1.20;;;16.80;66.70;;;;;;5130234;27;20575;-20
2022/01/28 06:03:44;;;;;;;1.70;1.00;;;17.00;64.80;;;;;;5128068;27;20188;-21
2022/01/28 06:06:18;;;;;;;2.03;1.30;;;17.40;62.30;;;;;;5128816;27;20214;-22
2022/01/28 06:08:54;;;;;;;3.10;1.20;;;17.70;59.90;;;;;;5130793;27;20318;-22
2022/01/28 06:11:21;;;;;;;1.93;1.20;;;18.00;59.10;;;;;;5129723;27;20171;-21
2022/01/28 06:13:47;;;;;;;2.00;1.17;;;18.30;57.70;;;;;;5131514;27;20175;-22
2022/01/28 06:16:14;;;;;;;4.60;1.30;;;18.60;56.70;;;;;;5130949;27;20240;-22
2022/01/28 06:18:40;;;;;;;3.90;1.47;;;18.80;55.80;;;;;;5131075;27;20170;-21
2022/01/28 06:21:07;;;;;;;4.63;1.27;;;18.90;55.30;;;;;;5129725;27;20407;-24
2022/01/28 06:23:33;;;;;;;2.97;1.13;;;19.00;55.30;;;;;;5127895;27;20170;-22
2022/01/28 06:25:59;;;;;;;2.43;1.30;;;18.90;55.40;;;;;;5128572;27;20193;-22
2022/01/28 06:28:25;;;;;;;2.90;1.50;;;18.70;55.90;;;;;;5127493;27;20172;-22
2022/01/28 06:30:52;;;;;;;2.80;1.17;;;18.50;56.60;;;;;;5128067;27;20168;-21
2022/01/28 06:33:18;;;;;;;3.40;1.30;;;18.30;57.10;;;;;;5130481;27;20278;-22
2022/01/28 06:35:45;;;;;;;2.47;1.30;;;18.20;57.80;;;;;;5129498;27;20344;-22
2022/01/28 06:38:11;;;;;;;2.80;1.17;;;18.00;58.40;;;;;;5129039;27;20260;-22
2022/01/28 06:40:38;;;;;;;3.57;1.47;;;17.80;59.20;;;;;;5129650;27;20446;-23
2022/01/28 06:43:07;;;;;;;1.70;1.10;;;17.60;59.70;;;;;;5127799;27;20167;-19
2022/01/28 06:45:32;;;;;;;3.13;1.47;;;17.50;60.80;;;;;;5126933;28;20615;-21
2022/01/28 06:48:00;;;;;;;2.70;1.10;;;17.30;61.60;;;;;;5128287;27;20171;-24
2022/01/28 06:50:25;;;;;;;1.50;1.10;;;17.20;62.60;;;;;;5128456;27;20173;-19
2022/01/28 06:52:51;;;;;;;1.90;1.20;;;17.10;63.50;;;;;;5130142;27;20393;-23
2022/01/28 06:55:17;;;;;;;2.77;1.30;;;17.00;64.30;;;;;;5131519;27;20306;-19
2022/01/28 06:57:44;;;;;;;2.70;1.00;;;16.90;65.60;;;;;;5133167;27;20190;-23
2022/01/28 07:00:11;;;;;;;3.13;1.30;;;16.90;65.70;;;;;;5132027;27;20187;-20
2022/01/28 07:02:38;;;;;;;3.77;1.07;;;16.80;66.30;;;;;;5132825;27;20318;-23
2022/01/28 07:05:04;;;;;;;3.43;1.20;;;16.70;66.90;;;;;;5132240;27;20175;-21
2022/01/28 07:07:31;;;;;;;4.00;1.37;;;16.70;67.50;;;;;;5132816;27;20505;-23
2022/01/28 07:09:57;;;;;;;4.03;1.20;;;16.60;68.00;;;;;;5131802;27;20166;-24
2022/01/28 07:12:23;;;;;;;2.53;1.40;;;16.50;68.50;;;;;;5132745;27;20487;-22
2022/01/28 07:14:49;;;;;;;3.13;1.20;;;16.50;69.20;;;;;;5131884;27;20635;-22
2022/01/28 07:17:15;;;;;;;2.63;1.30;;;16.40;69.40;;;;;;5132432;27;20172;-22
2022/01/28 07:19:41;;;;;;;2.17;1.10;;;16.40;70.00;;;;;;5131472;27;20176;-23
2022/01/28 07:22:07;;;;;;;2.47;1.40;;;16.30;70.30;;;;;;5130325;27;20167;-24
2022/01/28 07:24:34;;;;;;;3.73;1.03;;;16.30;70.90;;;;;;5131180;27;20193;-22
2022/01/28 07:27:00;;;;;;;2.43;1.50;;;16.30;71.40;;;;;;5132800;27;20248;-23
2022/01/28 07:29:29;;;;;;;2.77;1.27;;;16.20;71.70;;;;;;5131640;27;20157;-22
2022/01/28 07:31:56;;;;;;;4.97;1.30;;;16.30;72.40;;;;;;5130715;27;20166;-21
2022/01/28 07:34:22;;;;;;;2.80;1.20;;;16.30;72.40;;;;;;5130767;27;20511;-21
2022/01/28 07:36:48;;;;;;;3.20;1.10;;;16.40;72.10;;;;;;5130738;27;20168;-22
2022/01/28 07:39:14;;;;;;;2.77;1.37;;;16.60;70.70;;;;;;5130679;27;20177;-24
2022/01/28 07:41:39;;;;;;;3.17;1.20;;;17.00;68.80;;;;;;5131942;27;20171;-21
2022/01/28 07:44:06;;;;;;;2.93;1.37;;;17.40;65.40;;;;;;5130186;27;20211;-22
2022/01/28 07:46:32;;;;;;;2.87;1.20;;;17.90;62.20;;;;;;5131184;27;20263;-22
2022/01/28 07:48:58;;;;;;;2.50;1.27;;;18.30;59.90;;;;;;5131082;27;20178;-23
2022/01/28 07:51:24;;;;;;;4.27;1.40;;;18.50;58.90;;;;;;5131654;27;20387;-22
2022/01/28 07:53:50;;;;;;;3.43;1.23;;;18.60;58.40;;;;;;5131626;27;20485;-22
2022/01/28 07:56:16;;;;;;;4.13;1.40;;;18.70;58.10;;;;;;5130047;27;20447;-22
2022/01/28 07:58:42;;;;;;;5.30;1.40;;;18.70;57.90;;;;;;5130341;27;20168;-23
2022/01/28 08:01:08;;;;;;;3.70;1.30;;;18.60;58.40;;;;;;5131313;27;20187;-23
2022/01/28 08:03:34;;;;;;;4.87;1.27;;;18.50;58.70;;;;;;5130632;27;20176;-23
2022/01/28 08:06:00;;;;;;;4.10;1.23;;;18.30;59.40;;;;;;5132454;27;20200;-24
2022/01/28 08:08:25;;;;;;;4.37;1.53;;;18.10;60.10;;;;;;5130751;27;20161;-25
2022/01/28 08:10:52;;;;;;;3.90;1.40;;;17.90;61.30;;;;;;5130890;27;20177;-22
2022/01/28 08:13:18;;;;;;;3.47;1.20;;;17.70;62.30;;;;;;5130533;27;20205;-21
2022/01/28 08:15:44;;;;;;;5.43;1.73;;;17.60;63.30;;;;;;5131664;27;20176;-22
2022/01/28 08:18:10;;;;;;;2.83;1.53;;;17.50;64.20;;;;;;5131121;27;20171;-23
2022/01/28 08:20:37;;;;;;;5.23;1.50;;;17.40;65.00;;;;;;5131040;27;20164;-22
2022/01/28 08:23:03;;;;;;;3.03;1.70;;;17.30;65.90;;;;;;5129198;27;20235;-20
2022/01/28 08:25:31;;;;;;;7.50;1.63;;;17.20;66.70;;;;;;5137951;27;20195;-23
2022/01/28 08:27:59;;;;;;;8.60;1.80;;;17.20;67.40;;;;;;5137099;27;20163;-23
2022/01/28 08:30:27;;;;;;;4.23;1.90;;;17.10;68.20;;;;;;5113110;27;20471;-22
2022/01/28 08:32:53;;;;;;;3.97;1.50;;;17.00;68.70;;;;;;5131589;27;20163;-21
2022/01/28 08:35:29;;;;;;;7.20;2.30;;;17.00;69.20;;;;;;5130838;27;20727;-23
2022/01/28 08:37:59;;;;;;;4.47;1.90;;;16.90;69.80;;;;;;5129481;27;20172;-23
2022/01/28 08:40:26;;;;;;;6.43;2.03;;;16.90;70.30;;;;;;5129285;27;20187;-22
2022/01/28 08:42:53;;;;;;;5.73;1.70;;;16.90;70.70;;;;;;5130752;27;20168;-22
2022/01/28 08:45:19;;;;;;;4.33;1.73;;;16.80;70.80;;;;;;5129360;27;20207;-23
2022/01/28 08:47:48;;;;;;;6.73;2.50;;;16.80;71.00;;;;;;5130814;27;20188;-22
2022/01/28 08:50:14;;;;;;;3.83;1.90;;;16.80;71.40;;;;;;5130309;27;20185;-22
2022/01/28 08:52:46;;;;;;;5.57;1.80;;;16.70;71.40;;;;;;5130571;27;20463;-22
2022/01/28 08:55:13;;;;;;;3.20;1.77;;;16.70;71.40;;;;;;5128364;27;20190;-22
2022/01/28 08:57:43;;;;;;;4.87;2.10;;;16.70;71.80;;;;;;5130928;27;20469;-23
2022/01/28 09:00:11;;;;;;;5.77;1.90;;;16.60;72.00;;;;;;5129504;27;20175;-25
2022/01/28 09:02:37;;;;;;;5.17;2.17;;;16.60;72.20;;;;;;5129043;27;20175;-22
2022/01/28 09:05:04;;;;;;;4.33;1.70;;;16.60;72.20;;;;;;5128362;27;20446;-23
2022/01/28 09:07:29;;;;;;;4.43;2.20;;;16.70;71.80;;;;;;5128986;27;20443;-22
2022/01/28 09:10:02;;;;;;;4.80;1.90;;;16.80;71.10;;;;;;5129578;27;20165;-22
2022/01/28 09:12:48;;;;;;;4.53;2.20;;;16.90;70.00;;;;;;5128274;27;20171;-22
2022/01/28 09:15:14;;;;;;;5.27;1.83;;;17.10;68.40;;;;;;5129008;27;20550;-23
2022/01/28 09:17:40;;;;;;;4.60;2.00;;;17.40;65.80;;;;;;5128908;27;20176;-23
2022/01/28 09:20:06;;;;;;;4.70;2.30;;;18.20;60.40;;;;;;5130342;27;20542;-19
2022/01/28 09:22:32;;;;;;;5.77;2.20;;;18.90;57.70;;;;;;5129529;27;20177;-21
2022/01/28 09:24:58;;;;;;;5.40;2.40;;;19.40;55.60;;;;;;5128828;27;20495;-21
2022/01/28 09:27:23;;;;;;;5.60;2.43;;;20.00;54.00;;;;;;5128334;27;20162;-21
2022/01/28 09:29:49;;;;;;;7.63;2.60;;;20.30;53.00;;;;;;5127528;27;20201;-22
2022/01/28 09:32:16;;;;;;;7.00;2.30;;;20.30;52.70;;;;;;5128878;27;20580;-25
2022/01/28 09:34:45;;;;;;;8.23;2.27;;;20.10;52.70;;;;;;5128412;27;20171;-20
2022/01/28 09:37:14;;;;;;;5.77;2.47;;;20.10;52.80;;;;;;5127160;27;20268;-23
2022/01/28 09:39:45;;;;;;;6.10;2.53;;;19.90;52.90;;;;;;5129053;27;20183;-24
2022/01/28 09:42:16;;;;;;;6.40;2.43;;;19.70;53.30;;;;;;5127075;27;20169;-20
2022/01/28 09:44:43;;;;;;;7.30;2.23;;;19.50;53.70;;;;;;5126643;27;20470;-22
2022/01/28 09:47:14;;;;;;;7.03;2.43;;;19.30;54.10;;;;;;5127740;27;20252;-23
2022/01/28 09:49:41;;;;;;;5.70;2.33;;;19.30;54.60;;;;;;5127599;27;20432;-21
2022/01/28 09:52:10;;;;;;;5.13;2.23;;;19.10;55.10;;;;;;5128124;27;20216;-21
2022/01/28 09:54:37;;;;;;;5.07;2.40;;;19.00;55.40;;;;;;5130896;27;20599;-20
2022/01/28 09:57:06;;;;;;;6.20;2.57;;;18.90;55.70;;;;;;5135269;27;20160;-23
2022/01/28 09:59:33;;;;;;;4.40;2.07;;;18.70;56.10;;;;;;5113135;28;20239;-24
2022/01/28 10:01:58;;;;;;;5.97;2.10;;;18.60;56.60;;;;;;5125827;27;20173;-23
2022/01/28 10:04:24;;;;;;;4.43;2.00;;;18.50;57.00;;;;;;5126483;27;20232;-21
2022/01/28 10:06:50;;;;;;;3.93;2.17;;;18.40;57.40;;;;;;5126189;27;20414;-23
2022/01/28 10:09:19;;;;;;;4.90;2.20;;;18.30;57.70;;;;;;5124469;27;20370;-22
2022/01/28 10:11:48;;;;;;;5.93;2.27;;;18.20;58.00;;;;;;5125885;27;20669;-23
2022/01/28 10:14:21;;;;;;;3.83;2.30;;;18.10;58.30;;;;;;5125400;27;20154;-22
2022/01/28 10:16:58;;;;;;;5.20;2.30;;;18.00;58.80;;;;;;5126670;27;20160;-23
2022/01/28 10:19:26;;;;;;;5.83;2.10;;;17.90;59.30;;;;;;5125262;27;20256;-20
2022/01/28 10:21:53;;;;;;;4.63;2.13;;;17.80;59.70;;;;;;5126910;27;20170;-21
2022/01/28 10:24:24;;;;;;;7.50;2.63;;;17.70;60.40;;;;;;5126133;27;20173;-20
2022/01/28 10:26:54;;;;;;;7.43;2.27;;;17.70;61.10;;;;;;5126070;27;20197;-23
2022/01/28 10:29:32;;;;;;;7.10;2.50;;;17.60;61.50;;;;;;5128546;27;20178;-22
2022/01/28 10:32:06;;;;;;;6.07;2.13;;;17.60;62.00;;;;;;5130596;27;20157;-24
2022/01/28 10:34:40;;;;;;;5.27;2.23;;;17.60;62.50;;;;;;5131184;27;20176;-21
2022/01/28 10:37:20;;;;;;;4.97;2.23;;;17.50;63.00;;;;;;5127939;27;20184;-22
2022/01/28 10:40:00;;;;;;;7.50;2.50;;;17.50;63.10;;;;;;5129309;27;20184;-21
2022/01/28 10:42:34;;;;;;;7.47;2.30;;;17.50;63.50;;;;;;5130527;27;20687;-21
2022/01/28 10:45:04;;;;;;;5.07;2.00;;;17.40;63.70;;;;;;5130523;27;20216;-21
2022/01/28 10:47:43;;;;;;;4.97;2.03;;;17.40;64.00;;;;;;5129932;27;20164;-22
2022/01/28 10:50:26;;;;;;;6.13;2.77;;;17.40;64.10;;;;;;5128569;27;20170;-21
2022/01/28 10:53:13;;;;;;;7.87;2.70;;;17.40;64.10;;;;;;5128478;27;20169;-20
2022/01/28 10:55:44;;;;;;;5.97;2.20;;;17.50;63.90;;;;;;5128946;27;20223;-23
2022/01/28 10:58:13;;;;;;;6.13;2.17;;;17.50;63.80;;;;;;5129101;27;20249;-22
2022/01/28 11:00:41;;;;;;;6.13;2.33;;;17.60;63.40;;;;;;5129493;27;20165;-22
2022/01/28 11:03:09;;;;;;;7.43;2.07;;;17.80;62.40;;;;;;5129437;27;20422;-23
2022/01/28 11:05:36;;;;;;;5.00;2.30;;;18.10;60.50;;;;;;5128310;27;20197;-24
2022/01/28 11:08:04;;;;;;;3.67;2.00;;;18.50;58.80;;;;;;5129934;27;20254;-20
2022/01/28 11:10:30;;;;;;;3.93;1.80;;;18.90;57.40;;;;;;5130567;27;20750;-23
2022/01/28 11:12:59;;;;;;;4.80;2.17;;;19.30;56.30;;;;;;5129442;27;20319;-20
2022/01/28 11:15:25;;;;;;;5.10;1.73;;;19.60;55.30;;;;;;5130319;27;20642;-22
2022/01/28 11:17:52;;;;;;;5.57;2.17;;;19.90;54.50;;;;;;5129622;27;20212;-22
2022/01/28 11:20:21;;;;;;;4.83;2.00;;;20.00;53.80;;;;;;5130981;27;20284;-21
2022/01/28 11:23:24;;;;;;;7.20;2.10;;;19.90;53.70;;;;;;5129465;27;20277;-20
2022/01/28 11:26:11;;;;;;;4.57;2.17;;;19.70;53.80;;;;;;5127340;27;20582;-21
2022/01/28 11:28:50;;;;;;;5.37;1.90;;;19.50;54.40;;;;;;5129233;27;20251;-23
2022/01/28 11:31:55;;;;;;;5.40;1.83;;;19.20;55.10;;;;;;5129174;27;20176;-23
2022/01/28 11:34:21;;;;;;;4.30;2.03;;;19.00;55.70;;;;;;5128581;27;20172;-20
2022/01/28 11:36:47;;;;;;;6.40;1.90;;;18.80;56.40;;;;;;5130042;27;20168;-22
2022/01/28 11:39:32;;;;;;;5.47;1.97;;;18.60;57.10;;;;;;5128383;27;20180;-23
2022/01/28 11:42:13;;;;;;;5.80;2.20;;;18.40;57.90;;;;;;5129418;27;20158;-22
2022/01/28 11:44:40;;;;;;;5.80;2.17;;;18.20;58.40;;;;;;5129975;27;20198;-23
2022/01/28 11:47:10;;;;;;;3.93;2.03;;;18.10;58.90;;;;;;5127443;27;20339;-23
2022/01/28 11:49:56;;;;;;;5.70;2.00;;;18.00;59.30;;;;;;5127225;27;20258;-20
2022/01/28 11:52:31;;;;;;;4.77;1.80;;;17.90;59.70;;;;;;5126974;27;20511;-23
2022/01/28 11:55:17;;;;;;;6.53;2.10;;;17.90;60.30;;;;;;5127154;27;20176;-20
2022/01/28 11:57:56;;;;;;;6.27;2.40;;;17.80;60.70;;;;;;5128988;27;20165;-21
2022/01/28 12:00:34;;;;;;;5.30;2.23;;;17.80;61.10;;;;;;5128244;27;20193;-22
2022/01/28 12:03:02;;;;;;;7.87;2.23;;;17.70;61.30;;;;;;5128361;27;20163;-22
2022/01/28 12:05:31;;;;;;;5.97;1.83;;;17.60;61.50;;;;;;5127517;27;20203;-21
2022/01/28 12:08:00;;;;;;;7.13;2.03;;;17.60;61.80;;;;;;5128039;27;20166;-22
2022/01/28 12:10:28;;;;;;;6.30;2.13;;;17.60;61.70;;;;;;5128971;27;20186;-19
2022/01/28 12:13:02;;;;;;;5.80;2.10;;;17.60;61.50;;;;;;5128326;27;20539;-23
2022/01/28 12:15:31;;;;;;;9.83;2.30;;;17.60;61.40;;;;;;5127817;27;20379;-22
2022/01/28 12:18:10;;;;;;;6.47;2.13;;;17.50;61.60;;;;;;5125958;27;20420;-20
2022/01/28 12:20:39;;;;;;;5.00;2.13;;;17.50;61.10;;;;;;5128299;27;20171;-23
2022/01/28 12:23:08;;;;;;;5.87;2.40;;;17.50;60.80;;;;;;5128140;27;20497;-21
2022/01/28 12:25:37;;;;;;;9.17;2.20;;;17.50;60.80;;;;;;5128910;27;20201;-23
2022/01/28 12:28:33;;;;;;;6.37;2.30;;;17.50;61.00;;;;;;5131234;27;20435;-20
2022/01/28 12:31:19;;;;;;;4.97;2.07;;;17.50;60.70;;;;;;5127245;27;20168;-22
2022/01/28 12:33:48;;;;;;;5.47;2.20;;;17.50;60.70;;;;;;5128354;27;20162;-23
2022/01/28 12:36:17;;;;;;;6.73;2.17;;;17.50;61.60;;;;;;5127506;27;20183;-21
2022/01/28 12:38:58;;;;;;;5.27;1.90;;;17.40;60.70;;;;;;5128551;27;20218;-23
2022/01/28 12:41:25;;;;;;;5.30;2.17;;;17.40;61.00;;;;;;5130002;27;20564;-22
2022/01/28 12:43:53;;;;;;;8.23;2.30;;;17.40;61.30;;;;;;5126124;27;20189;-21
2022/01/28 12:46:19;;;;;;;4.73;2.10;;;17.40;61.40;;;;;;5126126;27;20292;-24
2022/01/28 12:48:49;;;;;;;5.17;1.80;;;17.40;61.40;;;;;;5126649;27;20262;-22
2022/01/28 12:51:16;;;;;;;5.33;2.17;;;17.40;61.60;;;;;;5127474;27;20169;-22
2022/01/28 12:53:47;;;;;;;7.60;2.20;;;17.40;61.80;;;;;;5128233;27;20158;-25
2022/01/28 12:56:16;;;;;;;5.33;2.10;;;17.30;61.70;;;;;;5127774;27;20169;-20
2022/01/28 12:58:51;;;;;;;5.60;2.10;;;17.30;62.20;;;;;;5128269;27;20715;-22
2022/01/28 13:01:19;;;;;;;6.20;2.43;;;17.30;62.50;;;;;;5127718;27;20668;-21
2022/01/28 13:03:50;;;;;;;4.17;1.90;;;17.40;62.10;;;;;;5126716;27;20293;-21
2022/01/28 13:09:19;;;;;;;6.33;1.83;;;17.90;59.90;;;;;;5128667;27;20172;-25
2022/01/28 13:11:58;;;;;;;7.80;2.20;;;18.30;58.30;;;;;;5127153;27;20176;-23
2022/01/28 13:14:27;;;;;;;4.73;2.00;;;18.80;56.70;;;;;;5126700;27;20161;-21
2022/01/28 13:16:53;;;;;;;6.70;2.20;;;19.10;55.70;;;;;;5131277;27;20210;-22
2022/01/28 13:19:19;;;;;;;7.47;2.37;;;19.30;54.90;;;;;;5135964;27;20191;-20
2022/01/28 13:21:47;;;;;;;8.20;2.40;;;19.40;54.50;;;;;;5134873;27;20237;-22
2022/01/28 13:24:20;;;;;;;5.07;2.03;;;19.40;54.30;;;;;;5127062;27;20186;-23
2022/01/28 13:26:53;;;;;;;6.00;2.00;;;19.40;54.20;;;;;;5129053;27;20205;-21
2022/01/28 13:29:36;;;;;;;4.87;2.03;;;19.30;54.30;;;;;;5127201;27;20448;-22
2022/01/28 13:32:06;;;;;;;3.50;1.67;;;19.20;54.50;;;;;;5131401;27;20161;-20
2022/01/28 13:34:50;;;;;;;5.07;1.87;;;19.00;54.90;;;;;;5136247;27;20256;-22
2022/01/28 13:37:37;;;;;;;4.90;2.00;;;18.80;55.50;;;;;;5134561;27;20180;-25
2022/01/28 13:40:05;;;;;;;4.97;2.03;;;18.60;56.20;;;;;;5129275;27;20161;-22
2022/01/28 13:42:31;;;;;;;5.37;1.73;;;18.40;56.90;;;;;;5127915;27;20170;-24
2022/01/28 13:45:03;;;;;;;5.03;2.20;;;18.20;57.50;;;;;;5128569;27;20550;-23
2022/01/28 13:47:47;;;;;;;4.97;2.00;;;18.00;58.10;;;;;;5127328;27;20178;-20
2022/01/28 13:50:26;;;;;;;5.90;2.23;;;17.90;58.70;;;;;;5127668;27;20162;-24
2022/01/28 13:53:20;;;;;;;6.07;2.30;;;17.80;59.10;;;;;;5127372;27;20169;-22
2022/01/28 13:55:46;;;;;;;5.07;2.20;;;17.80;59.40;;;;;;5127376;27;20573;-23
2022/01/28 13:58:13;;;;;;;4.87;2.37;;;17.70;59.70;;;;;;5127888;27;20168;-20
2022/01/28 14:00:44;;;;;;;4.27;1.87;;;17.60;59.90;;;;;;5128532;27;20174;-22
2022/01/28 14:03:24;;;;;;;6.60;1.90;;;17.60;60.30;;;;;;5129615;27;20403;-21
2022/01/28 14:05:51;;;;;;;4.73;2.03;;;17.60;60.70;;;;;;5130567;27;20219;-19
2022/01/28 14:08:58;;;;;;;4.27;2.17;;;17.50;60.90;;;;;;5131408;27;20180;-22
2022/01/28 14:11:33;;;;;;;7.30;2.00;;;17.50;61.20;;;;;;5138915;27;20184;-23
2022/01/28 14:14:19;;;;;;;4.77;2.03;;;17.50;61.60;;;;;;5139246;27;20502;-23
2022/01/28 14:16:48;;;;;;;5.70;2.20;;;17.50;61.70;;;;;;5132719;27;20445;-22
2022/01/28 14:19:14;;;;;;;3.80;1.97;;;17.40;61.80;;;;;;5128965;27;20254;-21
2022/01/28 14:21:41;;;;;;;4.10;2.10;;;17.40;61.80;;;;;;5128857;27;20270;-19
2022/01/28 14:24:09;;;;;;;5.00;2.40;;;17.40;61.70;;;;;;5132300;27;20173;-22
2022/01/28 14:26:41;;;;;;;3.80;2.13;;;17.30;61.70;;;;;;5131479;27;20211;-23
2022/01/28 14:29:22;;;;;;;4.17;2.03;;;17.30;61.70;;;;;;5131089;27;20181;-20